sensor_id;sensor_type;location;lat;lon;timestamp;P1;durP1;ratioP1;P2;durP2;ratioP2
29516;SDS011;40993;50.594;8.664;2022-10-03T00:02:18;37.67;;;4.47;;
29516;SDS011;40993;50.594;8.664;2022-10-03T00:04:54;31.00;;;4.20;;
29516;SDS011;40993;50.594;8.664;2022-10-03T00:07:29;33.97;;;4.70;;
29516;SDS011;40993;50.594;8.664;2022-10-03T00:10:04;29.50;;;3.97;;
29516;SDS011;40993;50.594;8.664;2022-10-03T00:12:37;33.90;;;4.40;;
29516;SDS011;40993;50.594;8.664;2022-10-03T00:15:09;32.55;;;4.07;;
29516;SDS011;40993;50.594;8.664;2022-10-03T00:17:40;29.48;;;4.72;;
29516;SDS011;40993;50.594;8.664;2022-10-03T00:20:17;34.33;;;4.57;;
29516;SDS011;40993;50.594;8.664;2022-10-03T00:22:47;28.58;;;4.18;;
29516;SDS011;40993;50.594;8.664;2022-10-03T00:25:23;22.05;;;3.65;;
29516;SDS011;40993;50.594;8.664;2022-10-03T00:27:54;27.17;;;3.60;;
29516;SDS011;40993;50.594;8.664;2022-10-03T00:30:29;31.58;;;4.63;;
29516;SDS011;40993;50.594;8.664;2022-10-03T00:33:11;25.00;;;4.00;;
29516;SDS011;40993;50.594;8.664;2022-10-03T00:38:17;32.03;;;4.38;;
29516;SDS011;40993;50.594;8.664;2022-10-03T00:41:01;28.25;;;4.22;;
29516;SDS011;40993;50.594;8.664;2022-10-03T00:43:39;31.35;;;4.00;;
29516;SDS011;40993;50.594;8.664;2022-10-03T00:46:27;37.50;;;5.57;;
29516;SDS011;40993;50.594;8.664;2022-10-03T00:49:13;29.60;;;4.80;;
29516;SDS011;40993;50.594;8.664;2022-10-03T00:51:54;30.88;;;4.03;;
29516;SDS011;40993;50.594;8.664;2022-10-03T00:54:27;39.85;;;4.95;;
29516;SDS011;40993;50.594;8.664;2022-10-03T00:57:00;32.88;;;4.95;;
29516;SDS011;40993;50.594;8.664;2022-10-03T00:59:33;23.98;;;4.50;;
29516;SDS011;40993;50.594;8.664;2022-10-03T01:04:53;28.15;;;4.25;;
29516;SDS011;40993;50.594;8.664;2022-10-03T01:07:26;35.22;;;4.75;;
29516;SDS011;40993;50.594;8.664;2022-10-03T01:09:59;28.13;;;4.18;;
29516;SDS011;40993;50.594;8.664;2022-10-03T01:12:47;24.27;;;4.05;;
29516;SDS011;40993;50.594;8.664;2022-10-03T01:15:19;26.63;;;4.43;;
29516;SDS011;40993;50.594;8.664;2022-10-03T01:17:51;33.47;;;4.40;;
29516;SDS011;40993;50.594;8.664;2022-10-03T01:20:27;21.55;;;3.88;;
29516;SDS011;40993;50.594;8.664;2022-10-03T01:23:09;25.92;;;4.30;;
29516;SDS011;40993;50.594;8.664;2022-10-03T01:25:39;33.35;;;4.18;;
29516;SDS011;40993;50.594;8.664;2022-10-03T01:28:21;35.53;;;4.32;;
29516;SDS011;40993;50.594;8.664;2022-10-03T01:31:12;28.00;;;4.25;;
29516;SDS011;40993;50.594;8.664;2022-10-03T01:33:41;36.15;;;4.80;;
29516;SDS011;40993;50.594;8.664;2022-10-03T01:36:11;24.05;;;4.30;;
29516;SDS011;40993;50.594;8.664;2022-10-03T01:38:41;33.58;;;4.45;;
29516;SDS011;40993;50.594;8.664;2022-10-03T01:41:12;24.13;;;4.15;;
29516;SDS011;40993;50.594;8.664;2022-10-03T01:43:44;24.67;;;4.32;;
29516;SDS011;40993;50.594;8.664;2022-10-03T01:46:15;21.30;;;4.57;;
29516;SDS011;40993;50.594;8.664;2022-10-03T01:48:46;29.58;;;3.80;;
29516;SDS011;40993;50.594;8.664;2022-10-03T01:51:18;24.17;;;3.97;;
29516;SDS011;40993;50.594;8.664;2022-10-03T01:53:55;21.95;;;3.42;;
29516;SDS011;40993;50.594;8.664;2022-10-03T01:56:26;22.95;;;3.40;;
29516;SDS011;40993;50.594;8.664;2022-10-03T01:58:59;19.98;;;3.67;;
29516;SDS011;40993;50.594;8.664;2022-10-03T02:01:28;31.88;;;4.50;;
29516;SDS011;40993;50.594;8.664;2022-10-03T02:03:59;26.30;;;4.45;;
29516;SDS011;40993;50.594;8.664;2022-10-03T02:06:33;19.07;;;3.10;;
29516;SDS011;40993;50.594;8.664;2022-10-03T02:09:04;28.02;;;3.90;;
29516;SDS011;40993;50.594;8.664;2022-10-03T02:11:34;19.85;;;3.30;;
29516;SDS011;40993;50.594;8.664;2022-10-03T02:14:08;24.90;;;3.58;;
29516;SDS011;40993;50.594;8.664;2022-10-03T02:16:42;26.33;;;3.90;;
29516;SDS011;40993;50.594;8.664;2022-10-03T02:19:12;25.83;;;3.45;;
29516;SDS011;40993;50.594;8.664;2022-10-03T02:21:47;24.13;;;3.63;;
29516;SDS011;40993;50.594;8.664;2022-10-03T02:24:19;24.65;;;3.67;;
29516;SDS011;40993;50.594;8.664;2022-10-03T02:26:53;22.33;;;3.20;;
29516;SDS011;40993;50.594;8.664;2022-10-03T02:29:36;22.45;;;3.78;;
29516;SDS011;40993;50.594;8.664;2022-10-03T02:34:43;25.70;;;3.63;;
29516;SDS011;40993;50.594;8.664;2022-10-03T02:37:18;29.90;;;4.43;;
29516;SDS011;40993;50.594;8.664;2022-10-03T02:40:04;24.40;;;3.85;;
29516;SDS011;40993;50.594;8.664;2022-10-03T02:42:39;28.02;;;4.03;;
29516;SDS011;40993;50.594;8.664;2022-10-03T02:45:30;23.70;;;3.65;;
29516;SDS011;40993;50.594;8.664;2022-10-03T02:48:15;20.42;;;3.25;;
29516;SDS011;40993;50.594;8.664;2022-10-03T02:51:03;27.15;;;3.63;;
29516;SDS011;40993;50.594;8.664;2022-10-03T02:53:39;16.90;;;2.95;;
29516;SDS011;40993;50.594;8.664;2022-10-03T02:56:17;21.23;;;3.58;;
29516;SDS011;40993;50.594;8.664;2022-10-03T02:58:54;21.48;;;3.88;;
29516;SDS011;40993;50.594;8.664;2022-10-03T03:01:48;29.55;;;3.92;;
29516;SDS011;40993;50.594;8.664;2022-10-03T03:07:09;22.98;;;3.33;;
29516;SDS011;40993;50.594;8.664;2022-10-03T03:09:45;19.02;;;3.05;;
29516;SDS011;40993;50.594;8.664;2022-10-03T03:17:45;28.77;;;3.80;;
29516;SDS011;40993;50.594;8.664;2022-10-03T03:20:24;23.10;;;3.67;;
29516;SDS011;40993;50.594;8.664;2022-10-03T03:23:05;21.13;;;3.42;;
29516;SDS011;40993;50.594;8.664;2022-10-03T03:25:38;23.23;;;3.67;;
29516;SDS011;40993;50.594;8.664;2022-10-03T03:28:17;21.75;;;3.95;;
29516;SDS011;40993;50.594;8.664;2022-10-03T03:30:49;19.17;;;2.85;;
29516;SDS011;40993;50.594;8.664;2022-10-03T03:33:22;27.38;;;3.97;;
29516;SDS011;40993;50.594;8.664;2022-10-03T03:35:56;23.02;;;3.67;;
29516;SDS011;40993;50.594;8.664;2022-10-03T03:38:27;24.40;;;4.00;;
29516;SDS011;40993;50.594;8.664;2022-10-03T03:43:43;21.30;;;3.50;;
29516;SDS011;40993;50.594;8.664;2022-10-03T03:46:15;22.05;;;4.15;;
29516;SDS011;40993;50.594;8.664;2022-10-03T03:48:50;18.88;;;3.30;;
29516;SDS011;40993;50.594;8.664;2022-10-03T03:51:21;25.48;;;3.15;;
29516;SDS011;40993;50.594;8.664;2022-10-03T03:53:53;26.25;;;3.67;;
29516;SDS011;40993;50.594;8.664;2022-10-03T03:56:27;23.20;;;4.07;;
29516;SDS011;40993;50.594;8.664;2022-10-03T03:59:02;22.48;;;3.78;;
29516;SDS011;40993;50.594;8.664;2022-10-03T04:01:35;33.85;;;4.97;;
29516;SDS011;40993;50.594;8.664;2022-10-03T04:04:07;27.40;;;3.97;;
29516;SDS011;40993;50.594;8.664;2022-10-03T04:06:42;25.55;;;3.63;;
29516;SDS011;40993;50.594;8.664;2022-10-03T04:09:18;18.85;;;3.85;;
29516;SDS011;40993;50.594;8.664;2022-10-03T04:11:51;23.20;;;3.58;;
29516;SDS011;40993;50.594;8.664;2022-10-03T04:14:28;31.10;;;4.28;;
29516;SDS011;40993;50.594;8.664;2022-10-03T04:17:05;31.90;;;3.58;;
29516;SDS011;40993;50.594;8.664;2022-10-03T04:19:59;21.52;;;3.58;;
29516;SDS011;40993;50.594;8.664;2022-10-03T04:22:36;24.48;;;3.85;;
29516;SDS011;40993;50.594;8.664;2022-10-03T04:25:13;21.98;;;3.92;;
29516;SDS011;40993;50.594;8.664;2022-10-03T04:30:11;26.77;;;4.07;;
29516;SDS011;40993;50.594;8.664;2022-10-03T04:32:44;30.10;;;4.10;;
29516;SDS011;40993;50.594;8.664;2022-10-03T04:38:08;26.08;;;3.55;;
29516;SDS011;40993;50.594;8.664;2022-10-03T04:40:40;28.63;;;3.92;;
29516;SDS011;40993;50.594;8.664;2022-10-03T04:43:10;22.75;;;3.65;;
29516;SDS011;40993;50.594;8.664;2022-10-03T04:45:45;21.05;;;3.88;;
29516;SDS011;40993;50.594;8.664;2022-10-03T04:48:15;39.10;;;3.97;;
29516;SDS011;40993;50.594;8.664;2022-10-03T04:53:21;30.42;;;4.15;;
29516;SDS011;40993;50.594;8.664;2022-10-03T04:55:51;23.67;;;3.42;;
29516;SDS011;40993;50.594;8.664;2022-10-03T04:58:23;24.73;;;3.55;;
29516;SDS011;40993;50.594;8.664;2022-10-03T05:00:54;22.40;;;3.60;;
29516;SDS011;40993;50.594;8.664;2022-10-03T05:03:26;22.17;;;3.55;;
29516;SDS011;40993;50.594;8.664;2022-10-03T05:05:54;29.60;;;4.15;;
29516;SDS011;40993;50.594;8.664;2022-10-03T05:08:30;19.25;;;3.03;;
29516;SDS011;40993;50.594;8.664;2022-10-03T05:11:12;24.17;;;4.07;;
29516;SDS011;40993;50.594;8.664;2022-10-03T05:13:43;24.70;;;3.55;;
29516;SDS011;40993;50.594;8.664;2022-10-03T05:16:18;21.52;;;4.00;;
29516;SDS011;40993;50.594;8.664;2022-10-03T05:18:48;19.75;;;3.53;;
29516;SDS011;40993;50.594;8.664;2022-10-03T05:21:21;29.45;;;4.30;;
29516;SDS011;40993;50.594;8.664;2022-10-03T05:23:54;24.98;;;3.90;;
29516;SDS011;40993;50.594;8.664;2022-10-03T05:26:32;24.25;;;3.67;;
29516;SDS011;40993;50.594;8.664;2022-10-03T05:29:14;30.55;;;3.70;;
29516;SDS011;40993;50.594;8.664;2022-10-03T05:31:45;20.42;;;3.35;;
29516;SDS011;40993;50.594;8.664;2022-10-03T05:34:20;26.05;;;4.20;;
29516;SDS011;40993;50.594;8.664;2022-10-03T05:36:54;33.63;;;4.20;;
29516;SDS011;40993;50.594;8.664;2022-10-03T05:39:26;21.08;;;3.53;;
29516;SDS011;40993;50.594;8.664;2022-10-03T05:41:55;25.17;;;3.70;;
29516;SDS011;40993;50.594;8.664;2022-10-03T05:44:49;26.17;;;4.43;;
29516;SDS011;40993;50.594;8.664;2022-10-03T05:47:26;25.35;;;3.90;;
29516;SDS011;40993;50.594;8.664;2022-10-03T05:53:01;20.88;;;3.40;;
29516;SDS011;40993;50.594;8.664;2022-10-03T05:55:37;28.75;;;3.75;;
29516;SDS011;40993;50.594;8.664;2022-10-03T05:58:24;28.48;;;3.92;;
29516;SDS011;40993;50.594;8.664;2022-10-03T06:00:59;25.50;;;3.45;;
29516;SDS011;40993;50.594;8.664;2022-10-03T06:03:35;20.25;;;3.25;;
29516;SDS011;40993;50.594;8.664;2022-10-03T06:06:10;24.52;;;3.47;;
29516;SDS011;40993;50.594;8.664;2022-10-03T06:08:50;26.15;;;3.83;;
29516;SDS011;40993;50.594;8.664;2022-10-03T06:11:36;31.98;;;4.10;;
29516;SDS011;40993;50.594;8.664;2022-10-03T06:14:23;23.90;;;4.05;;
29516;SDS011;40993;50.594;8.664;2022-10-03T06:16:55;25.88;;;3.58;;
29516;SDS011;40993;50.594;8.664;2022-10-03T06:19:31;18.35;;;3.38;;
29516;SDS011;40993;50.594;8.664;2022-10-03T06:22:13;19.38;;;3.75;;
29516;SDS011;40993;50.594;8.664;2022-10-03T06:24:56;27.00;;;4.13;;
29516;SDS011;40993;50.594;8.664;2022-10-03T06:27:36;22.83;;;4.50;;
29516;SDS011;40993;50.594;8.664;2022-10-03T06:30:18;19.55;;;3.10;;
29516;SDS011;40993;50.594;8.664;2022-10-03T06:35:40;22.38;;;3.55;;
29516;SDS011;40993;50.594;8.664;2022-10-03T06:41:04;20.58;;;3.50;;
29516;SDS011;40993;50.594;8.664;2022-10-03T06:44:01;22.90;;;3.40;;
29516;SDS011;40993;50.594;8.664;2022-10-03T06:49:26;24.73;;;3.88;;
29516;SDS011;40993;50.594;8.664;2022-10-03T06:51:58;21.77;;;3.40;;
29516;SDS011;40993;50.594;8.664;2022-10-03T06:54:50;20.42;;;2.90;;
29516;SDS011;40993;50.594;8.664;2022-10-03T06:57:27;32.80;;;3.60;;
29516;SDS011;40993;50.594;8.664;2022-10-03T07:00:07;22.25;;;3.25;;
29516;SDS011;40993;50.594;8.664;2022-10-03T07:02:40;21.67;;;3.42;;
29516;SDS011;40993;50.594;8.664;2022-10-03T07:08:17;20.88;;;3.53;;
29516;SDS011;40993;50.594;8.664;2022-10-03T07:10:51;24.25;;;3.50;;
29516;SDS011;40993;50.594;8.664;2022-10-03T07:13:26;25.58;;;4.18;;
29516;SDS011;40993;50.594;8.664;2022-10-03T07:16:07;23.20;;;3.38;;
29516;SDS011;40993;50.594;8.664;2022-10-03T07:18:58;23.42;;;3.60;;
29516;SDS011;40993;50.594;8.664;2022-10-03T07:27:04;23.77;;;3.55;;
29516;SDS011;40993;50.594;8.664;2022-10-03T07:29:41;25.90;;;3.88;;
29516;SDS011;40993;50.594;8.664;2022-10-03T07:32:23;23.63;;;4.25;;
29516;SDS011;40993;50.594;8.664;2022-10-03T07:37:42;31.88;;;3.83;;
29516;SDS011;40993;50.594;8.664;2022-10-03T07:40:49;26.80;;;4.95;;
29516;SDS011;40993;50.594;8.664;2022-10-03T07:46:13;23.27;;;3.70;;
29516;SDS011;40993;50.594;8.664;2022-10-03T07:48:49;23.08;;;3.67;;
29516;SDS011;40993;50.594;8.664;2022-10-03T07:51:21;28.48;;;4.35;;
29516;SDS011;40993;50.594;8.664;2022-10-03T07:54:01;23.17;;;3.85;;
29516;SDS011;40993;50.594;8.664;2022-10-03T07:56:47;29.17;;;3.88;;
29516;SDS011;40993;50.594;8.664;2022-10-03T07:59:30;20.65;;;4.20;;
29516;SDS011;40993;50.594;8.664;2022-10-03T08:02:13;24.85;;;4.13;;
29516;SDS011;40993;50.594;8.664;2022-10-03T08:05:01;18.63;;;3.35;;
29516;SDS011;40993;50.594;8.664;2022-10-03T08:07:39;28.10;;;3.75;;
29516;SDS011;40993;50.594;8.664;2022-10-03T08:10:14;25.85;;;3.60;;
29516;SDS011;40993;50.594;8.664;2022-10-03T08:12:48;24.38;;;3.80;;
29516;SDS011;40993;50.594;8.664;2022-10-03T08:15:21;15.73;;;3.40;;
29516;SDS011;40993;50.594;8.664;2022-10-03T08:20:44;17.67;;;2.83;;
29516;SDS011;40993;50.594;8.664;2022-10-03T08:26:04;20.00;;;3.55;;
29516;SDS011;40993;50.594;8.664;2022-10-03T08:28:47;23.40;;;3.33;;
29516;SDS011;40993;50.594;8.664;2022-10-03T08:31:22;27.60;;;3.60;;
29516;SDS011;40993;50.594;8.664;2022-10-03T08:36:42;21.75;;;3.72;;
29516;SDS011;40993;50.594;8.664;2022-10-03T08:39:22;20.50;;;3.40;;
29516;SDS011;40993;50.594;8.664;2022-10-03T08:42:05;27.38;;;4.18;;
29516;SDS011;40993;50.594;8.664;2022-10-03T08:44:41;18.83;;;3.22;;
29516;SDS011;40993;50.594;8.664;2022-10-03T08:50:02;27.63;;;4.45;;
29516;SDS011;40993;50.594;8.664;2022-10-03T08:52:35;19.88;;;2.90;;
29516;SDS011;40993;50.594;8.664;2022-10-03T08:55:11;18.80;;;3.70;;
29516;SDS011;40993;50.594;8.664;2022-10-03T08:57:48;33.25;;;8.57;;
29516;SDS011;40993;50.594;8.664;2022-10-03T09:00:20;25.35;;;4.05;;
29516;SDS011;40993;50.594;8.664;2022-10-03T09:03:00;23.77;;;4.05;;
29516;SDS011;40993;50.594;8.664;2022-10-03T09:06:06;23.58;;;3.58;;
29516;SDS011;40993;50.594;8.664;2022-10-03T09:08:44;21.80;;;2.90;;
29516;SDS011;40993;50.594;8.664;2022-10-03T09:14:09;24.15;;;4.07;;
29516;SDS011;40993;50.594;8.664;2022-10-03T09:16:50;25.10;;;3.30;;
29516;SDS011;40993;50.594;8.664;2022-10-03T09:22:15;21.83;;;3.95;;
29516;SDS011;40993;50.594;8.664;2022-10-03T09:24:58;20.33;;;3.58;;
29516;SDS011;40993;50.594;8.664;2022-10-03T09:27:32;19.77;;;3.58;;
29516;SDS011;40993;50.594;8.664;2022-10-03T09:30:07;23.58;;;3.85;;
29516;SDS011;40993;50.594;8.664;2022-10-03T09:35:29;16.00;;;3.20;;
29516;SDS011;40993;50.594;8.664;2022-10-03T09:38:14;22.05;;;4.07;;
29516;SDS011;40993;50.594;8.664;2022-10-03T09:48:43;15.82;;;3.33;;
29516;SDS011;40993;50.594;8.664;2022-10-03T09:51:27;14.88;;;3.38;;
29516;SDS011;40993;50.594;8.664;2022-10-03T09:59:35;12.10;;;2.97;;
29516;SDS011;40993;50.594;8.664;2022-10-03T10:02:11;18.65;;;3.58;;
29516;SDS011;40993;50.594;8.664;2022-10-03T10:04:47;17.23;;;2.95;;
29516;SDS011;40993;50.594;8.664;2022-10-03T10:10:29;14.95;;;3.53;;
29516;SDS011;40993;50.594;8.664;2022-10-03T10:13:09;13.38;;;3.10;;
29516;SDS011;40993;50.594;8.664;2022-10-03T10:18:57;20.15;;;3.83;;
29516;SDS011;40993;50.594;8.664;2022-10-03T10:21:45;18.00;;;3.55;;
29516;SDS011;40993;50.594;8.664;2022-10-03T10:24:32;19.83;;;3.10;;
29516;SDS011;40993;50.594;8.664;2022-10-03T10:27:10;12.88;;;3.65;;
29516;SDS011;40993;50.594;8.664;2022-10-03T10:29:48;17.20;;;3.60;;
29516;SDS011;40993;50.594;8.664;2022-10-03T10:35:25;15.63;;;3.70;;
29516;SDS011;40993;50.594;8.664;2022-10-03T10:38:10;17.42;;;3.85;;
29516;SDS011;40993;50.594;8.664;2022-10-03T10:43:50;13.38;;;2.83;;
29516;SDS011;40993;50.594;8.664;2022-10-03T10:46:32;13.43;;;3.05;;
29516;SDS011;40993;50.594;8.664;2022-10-03T10:49:30;12.50;;;2.88;;
29516;SDS011;40993;50.594;8.664;2022-10-03T10:52:13;9.52;;;2.60;;
29516;SDS011;40993;50.594;8.664;2022-10-03T10:54:56;10.82;;;3.30;;
29516;SDS011;40993;50.594;8.664;2022-10-03T10:57:36;14.15;;;3.40;;
29516;SDS011;40993;50.594;8.664;2022-10-03T11:00:15;12.68;;;3.15;;
29516;SDS011;40993;50.594;8.664;2022-10-03T11:02:58;12.00;;;3.08;;
29516;SDS011;40993;50.594;8.664;2022-10-03T11:05:38;14.88;;;3.30;;
29516;SDS011;40993;50.594;8.664;2022-10-03T11:11:04;13.27;;;3.40;;
29516;SDS011;40993;50.594;8.664;2022-10-03T11:13:48;14.77;;;3.03;;
29516;SDS011;40993;50.594;8.664;2022-10-03T11:16:29;13.43;;;2.50;;
29516;SDS011;40993;50.594;8.664;2022-10-03T11:24:49;13.63;;;3.10;;
29516;SDS011;40993;50.594;8.664;2022-10-03T11:30:18;17.48;;;2.90;;
29516;SDS011;40993;50.594;8.664;2022-10-03T11:35:43;13.70;;;2.97;;
29516;SDS011;40993;50.594;8.664;2022-10-03T11:38:18;12.30;;;2.50;;
29516;SDS011;40993;50.594;8.664;2022-10-03T11:40:50;18.13;;;3.22;;
29516;SDS011;40993;50.594;8.664;2022-10-03T11:46:13;10.13;;;2.15;;
29516;SDS011;40993;50.594;8.664;2022-10-03T11:48:45;13.00;;;2.40;;
29516;SDS011;40993;50.594;8.664;2022-10-03T11:51:17;11.93;;;2.67;;
29516;SDS011;40993;50.594;8.664;2022-10-03T11:53:48;14.23;;;2.95;;
29516;SDS011;40993;50.594;8.664;2022-10-03T11:56:39;12.82;;;2.33;;
29516;SDS011;40993;50.594;8.664;2022-10-03T11:59:16;14.07;;;2.80;;
29516;SDS011;40993;50.594;8.664;2022-10-03T12:01:59;10.53;;;1.97;;
29516;SDS011;40993;50.594;8.664;2022-10-03T12:04:29;8.50;;;2.38;;
29516;SDS011;40993;50.594;8.664;2022-10-03T12:07:02;10.95;;;2.40;;
29516;SDS011;40993;50.594;8.664;2022-10-03T12:09:58;12.48;;;2.22;;
29516;SDS011;40993;50.594;8.664;2022-10-03T12:12:30;7.20;;;2.15;;
29516;SDS011;40993;50.594;8.664;2022-10-03T12:15:02;10.82;;;2.28;;
29516;SDS011;40993;50.594;8.664;2022-10-03T12:17:33;11.48;;;2.30;;
29516;SDS011;40993;50.594;8.664;2022-10-03T12:20:02;8.80;;;2.10;;
29516;SDS011;40993;50.594;8.664;2022-10-03T12:22:35;17.35;;;2.95;;
29516;SDS011;40993;50.594;8.664;2022-10-03T12:27:35;17.60;;;2.17;;
29516;SDS011;40993;50.594;8.664;2022-10-03T12:30:09;12.63;;;2.55;;
29516;SDS011;40993;50.594;8.664;2022-10-03T12:32:41;11.30;;;2.45;;
29516;SDS011;40993;50.594;8.664;2022-10-03T12:35:18;22.88;;;7.88;;
29516;SDS011;40993;50.594;8.664;2022-10-03T12:37:54;15.00;;;4.13;;
29516;SDS011;40993;50.594;8.664;2022-10-03T12:40:26;13.98;;;3.08;;
29516;SDS011;40993;50.594;8.664;2022-10-03T12:43:01;13.85;;;2.70;;
29516;SDS011;40993;50.594;8.664;2022-10-03T12:45:31;15.15;;;2.95;;
29516;SDS011;40993;50.594;8.664;2022-10-03T12:48:10;9.48;;;2.22;;
29516;SDS011;40993;50.594;8.664;2022-10-03T12:50:43;13.23;;;2.45;;
29516;SDS011;40993;50.594;8.664;2022-10-03T12:53:18;14.65;;;2.80;;
29516;SDS011;40993;50.594;8.664;2022-10-03T12:55:52;14.82;;;3.13;;
29516;SDS011;40993;50.594;8.664;2022-10-03T12:58:22;14.02;;;2.60;;
29516;SDS011;40993;50.594;8.664;2022-10-03T13:00:53;18.13;;;2.75;;
29516;SDS011;40993;50.594;8.664;2022-10-03T13:03:26;13.95;;;2.33;;
29516;SDS011;40993;50.594;8.664;2022-10-03T13:06:19;15.15;;;2.72;;
29516;SDS011;40993;50.594;8.664;2022-10-03T13:09:15;12.32;;;2.60;;
29516;SDS011;40993;50.594;8.664;2022-10-03T13:11:50;14.07;;;2.30;;
29516;SDS011;40993;50.594;8.664;2022-10-03T13:14:25;11.00;;;2.00;;
29516;SDS011;40993;50.594;8.664;2022-10-03T13:16:56;10.63;;;2.10;;
29516;SDS011;40993;50.594;8.664;2022-10-03T13:19:27;12.52;;;3.05;;
29516;SDS011;40993;50.594;8.664;2022-10-03T13:22:00;13.88;;;2.08;;
29516;SDS011;40993;50.594;8.664;2022-10-03T13:24:33;16.27;;;2.42;;
29516;SDS011;40993;50.594;8.664;2022-10-03T13:27:03;11.85;;;2.35;;
29516;SDS011;40993;50.594;8.664;2022-10-03T13:29:33;12.00;;;2.28;;
29516;SDS011;40993;50.594;8.664;2022-10-03T13:32:05;12.07;;;2.67;;
29516;SDS011;40993;50.594;8.664;2022-10-03T13:34:37;12.05;;;2.20;;
29516;SDS011;40993;50.594;8.664;2022-10-03T13:37:07;9.65;;;2.63;;
29516;SDS011;40993;50.594;8.664;2022-10-03T13:39:40;9.90;;;1.85;;
29516;SDS011;40993;50.594;8.664;2022-10-03T13:42:10;9.55;;;2.15;;
29516;SDS011;40993;50.594;8.664;2022-10-03T13:44:40;5.82;;;1.80;;
29516;SDS011;40993;50.594;8.664;2022-10-03T13:47:16;10.38;;;2.38;;
29516;SDS011;40993;50.594;8.664;2022-10-03T13:49:49;7.80;;;1.98;;
29516;SDS011;40993;50.594;8.664;2022-10-03T13:52:19;9.30;;;2.20;;
29516;SDS011;40993;50.594;8.664;2022-10-03T13:54:59;11.60;;;1.90;;
29516;SDS011;40993;50.594;8.664;2022-10-03T13:57:28;14.73;;;2.42;;
29516;SDS011;40993;50.594;8.664;2022-10-03T14:00:00;12.02;;;2.55;;
29516;SDS011;40993;50.594;8.664;2022-10-03T14:02:38;8.50;;;2.35;;
29516;SDS011;40993;50.594;8.664;2022-10-03T14:05:19;11.25;;;2.47;;
29516;SDS011;40993;50.594;8.664;2022-10-03T14:07:52;11.25;;;2.20;;
29516;SDS011;40993;50.594;8.664;2022-10-03T14:10:32;10.65;;;2.38;;
29516;SDS011;40993;50.594;8.664;2022-10-03T14:13:06;11.55;;;2.25;;
29516;SDS011;40993;50.594;8.664;2022-10-03T14:15:41;11.52;;;2.33;;
29516;SDS011;40993;50.594;8.664;2022-10-03T14:18:13;14.82;;;2.40;;
29516;SDS011;40993;50.594;8.664;2022-10-03T14:23:36;13.23;;;2.42;;
29516;SDS011;40993;50.594;8.664;2022-10-03T14:26:09;7.80;;;2.20;;
29516;SDS011;40993;50.594;8.664;2022-10-03T14:28:42;10.63;;;2.20;;
29516;SDS011;40993;50.594;8.664;2022-10-03T14:31:14;9.02;;;2.33;;
29516;SDS011;40993;50.594;8.664;2022-10-03T14:33:44;16.33;;;2.55;;
29516;SDS011;40993;50.594;8.664;2022-10-03T14:36:16;14.57;;;2.60;;
29516;SDS011;40993;50.594;8.664;2022-10-03T14:38:58;15.15;;;2.50;;
29516;SDS011;40993;50.594;8.664;2022-10-03T14:41:43;13.63;;;2.38;;
29516;SDS011;40993;50.594;8.664;2022-10-03T14:44:14;14.90;;;2.53;;
29516;SDS011;40993;50.594;8.664;2022-10-03T14:46:46;13.98;;;2.92;;
29516;SDS011;40993;50.594;8.664;2022-10-03T14:49:18;18.98;;;2.33;;
29516;SDS011;40993;50.594;8.664;2022-10-03T14:52:17;12.73;;;2.42;;
29516;SDS011;40993;50.594;8.664;2022-10-03T14:54:52;18.63;;;3.20;;
29516;SDS011;40993;50.594;8.664;2022-10-03T14:57:23;14.77;;;2.55;;
29516;SDS011;40993;50.594;8.664;2022-10-03T14:59:56;14.50;;;2.75;;
29516;SDS011;40993;50.594;8.664;2022-10-03T15:02:25;15.35;;;2.83;;
29516;SDS011;40993;50.594;8.664;2022-10-03T15:04:55;13.75;;;2.60;;
29516;SDS011;40993;50.594;8.664;2022-10-03T15:07:30;14.40;;;2.70;;
29516;SDS011;40993;50.594;8.664;2022-10-03T15:10:02;12.95;;;2.75;;
29516;SDS011;40993;50.594;8.664;2022-10-03T15:12:32;16.92;;;3.20;;
29516;SDS011;40993;50.594;8.664;2022-10-03T15:15:04;16.52;;;3.33;;
29516;SDS011;40993;50.594;8.664;2022-10-03T15:17:35;14.90;;;3.10;;
29516;SDS011;40993;50.594;8.664;2022-10-03T15:20:09;16.30;;;3.00;;
29516;SDS011;40993;50.594;8.664;2022-10-03T15:22:37;14.48;;;3.17;;
29516;SDS011;40993;50.594;8.664;2022-10-03T15:25:10;16.05;;;3.05;;
29516;SDS011;40993;50.594;8.664;2022-10-03T15:27:43;15.52;;;3.25;;
29516;SDS011;40993;50.594;8.664;2022-10-03T15:30:18;13.75;;;3.25;;
29516;SDS011;40993;50.594;8.664;2022-10-03T15:32:46;19.17;;;3.30;;
29516;SDS011;40993;50.594;8.664;2022-10-03T15:35:15;15.00;;;3.30;;
29516;SDS011;40993;50.594;8.664;2022-10-03T15:37:45;16.67;;;2.53;;
29516;SDS011;40993;50.594;8.664;2022-10-03T15:40:20;16.75;;;2.97;;
29516;SDS011;40993;50.594;8.664;2022-10-03T15:42:51;8.98;;;2.70;;
29516;SDS011;40993;50.594;8.664;2022-10-03T15:45:27;17.05;;;3.47;;
29516;SDS011;40993;50.594;8.664;2022-10-03T15:47:59;10.75;;;2.78;;
29516;SDS011;40993;50.594;8.664;2022-10-03T15:50:28;22.42;;;4.03;;
29516;SDS011;40993;50.594;8.664;2022-10-03T15:52:59;16.77;;;3.15;;
29516;SDS011;40993;50.594;8.664;2022-10-03T15:55:55;13.95;;;3.08;;
29516;SDS011;40993;50.594;8.664;2022-10-03T15:58:27;17.23;;;3.95;;
29516;SDS011;40993;50.594;8.664;2022-10-03T16:01:00;21.83;;;4.72;;
29516;SDS011;40993;50.594;8.664;2022-10-03T16:03:30;18.63;;;4.53;;
29516;SDS011;40993;50.594;8.664;2022-10-03T16:06:02;14.52;;;3.92;;
29516;SDS011;40993;50.594;8.664;2022-10-03T16:08:35;12.52;;;3.22;;
29516;SDS011;40993;50.594;8.664;2022-10-03T16:11:12;13.88;;;3.00;;
29516;SDS011;40993;50.594;8.664;2022-10-03T16:13:42;14.27;;;3.22;;
29516;SDS011;40993;50.594;8.664;2022-10-03T16:16:15;12.95;;;3.30;;
29516;SDS011;40993;50.594;8.664;2022-10-03T16:18:52;16.13;;;3.08;;
29516;SDS011;40993;50.594;8.664;2022-10-03T16:21:29;17.02;;;3.15;;
29516;SDS011;40993;50.594;8.664;2022-10-03T16:24:07;15.32;;;3.03;;
29516;SDS011;40993;50.594;8.664;2022-10-03T16:26:47;12.77;;;2.85;;
29516;SDS011;40993;50.594;8.664;2022-10-03T16:29:18;14.73;;;2.78;;
29516;SDS011;40993;50.594;8.664;2022-10-03T16:31:48;21.17;;;4.10;;
29516;SDS011;40993;50.594;8.664;2022-10-03T16:34:18;18.88;;;3.40;;
29516;SDS011;40993;50.594;8.664;2022-10-03T16:36:50;20.42;;;3.08;;
29516;SDS011;40993;50.594;8.664;2022-10-03T16:39:19;23.30;;;3.35;;
29516;SDS011;40993;50.594;8.664;2022-10-03T16:41:49;18.48;;;2.80;;
29516;SDS011;40993;50.594;8.664;2022-10-03T16:44:20;21.08;;;3.50;;
29516;SDS011;40993;50.594;8.664;2022-10-03T16:46:51;14.27;;;2.80;;
29516;SDS011;40993;50.594;8.664;2022-10-03T16:49:33;17.10;;;3.30;;
29516;SDS011;40993;50.594;8.664;2022-10-03T16:52:20;18.63;;;3.30;;
29516;SDS011;40993;50.594;8.664;2022-10-03T16:54:55;14.48;;;2.90;;
29516;SDS011;40993;50.594;8.664;2022-10-03T16:57:28;20.17;;;3.75;;
29516;SDS011;40993;50.594;8.664;2022-10-03T16:59:58;8.93;;;2.38;;
29516;SDS011;40993;50.594;8.664;2022-10-03T17:02:30;14.02;;;3.08;;
29516;SDS011;40993;50.594;8.664;2022-10-03T17:04:59;16.33;;;4.28;;
29516;SDS011;40993;50.594;8.664;2022-10-03T17:07:29;14.52;;;3.50;;
29516;SDS011;40993;50.594;8.664;2022-10-03T17:10:04;17.20;;;4.07;;
29516;SDS011;40993;50.594;8.664;2022-10-03T17:12:48;13.20;;;3.77;;
29516;SDS011;40993;50.594;8.664;2022-10-03T17:15:19;14.13;;;3.60;;
29516;SDS011;40993;50.594;8.664;2022-10-03T17:17:48;15.63;;;4.60;;
29516;SDS011;40993;50.594;8.664;2022-10-03T17:20:21;16.95;;;4.05;;
29516;SDS011;40993;50.594;8.664;2022-10-03T17:23:00;17.73;;;4.13;;
29516;SDS011;40993;50.594;8.664;2022-10-03T17:25:31;14.82;;;3.40;;
29516;SDS011;40993;50.594;8.664;2022-10-03T17:28:03;16.95;;;4.15;;